Airfield :
LOGIN :

Register | Disclaimer

   EN    FR    IT 

 










Legend :    VFR   Marginal VFR   IFR   Intensive IFR   Very Intensive IFR
Visi :
Ceiling :
>= 8 km
>= 3000ft
5 to 8 km
1000 to 3000 ft
1500m to 5 km
500 to 1000 ft
800 to 1500m
200 to 500 ft
< 800m
< 200 ft
Symbols :   Thunderstorms  Fog  Heavy snow  Heavy precipitations  Wind > 20 kt
SIGMETs :     Misc.  Thunderstorms  Icing  Turbulence  Mountain Waves  Volcanic Ashes






- Airport Elevation : 311 ft
- IATA code : SVL


EFSA - Savonlinna

CURRENT METAR :
  • 041820Z AUTO 27004KT 230V310 9999 -SN SCT002 BKN032 M02/M02 Q1012 RESN

EXPIRED METARs :
  • 041750Z AUTO 33006KT 1700 SN OVC002 M02/M02 Q1012 RESN
  • 041720Z AUTO 35006KT 9999 -SHSN OVC019 M01/M03 Q1011
  • 041650Z AUTO 33004KT 250V010 9999 -SHSN FEW008 OVC027 M00/M03 Q1011 REFZRA
  • 041620Z AUTO 23003KT 9999 VCSH //////CB M01/M03 Q1010
  • 041550Z AUTO 28005KT 240V310 9999 -SHSN SCT003 M01/M03 Q1010 REFZDZ
  • 041520Z AUTO 29006KT 9999 BKN038 02/M07 Q1010

Expired Forecast.



MET'MAP, your aeronautical weather chart ! - Copyright ORBIFLY December 2007 - Disclaimer

ORBIFLY MET'MAP TEAM :

Programming & Development : Alexandra Zaïnal
Concept & original design : Baudouin d'Aumeries
Assistance for programming : Marc-Olivier Méhu
Technical & hardware support : Manuel Goepfert

Contact : metmap@orbifly.com




SOURCES & CREDITS :

   NOAA